Wichita, Kansas
Current Conditions -  °F | °C
As of 10:58 AM on Tuesday 21 Oct 2014 (Local Time) from KIAB Reporting Station
Clear Clear  
Wind Chill: 70°   Ceiling: Unl
Heat Index: 70°   Visibility: 10mi
Dew Point: 56°   Wind: 12mph
Humidity: 62%   Direction: 130°SE
Pressure: 30.11"   Gusts: NA
Location:  37.69°N, 97.33°W
Report Text: KIAB 211558Z AUTO 13010KT 10SM CLR 21/13 A3011 RMK AO2 SLP192 T02090133 $
Loading
Personal Weather Stations






























Interactive Weather Map
Tropical Storm Tracking
New forecast layout! Learn more

10-Day Weather Forecast

Advertisements
Track Severe Weather on mobile